sensor_id;sensor_type;location;lat;lon;timestamp;pressure;altitude;pressure_sealevel;temperature;humidity
38227;BME280;24026;49.446;8.576;2023-05-23T00:00:48;100347.66;;;22.39;55.35
38227;BME280;24026;49.446;8.576;2023-05-23T00:03:12;100352.59;;;22.37;55.69
38227;BME280;24026;49.446;8.576;2023-05-23T00:05:32;100349.41;;;22.35;55.84
38227;BME280;24026;49.446;8.576;2023-05-23T00:07:53;100355.44;;;22.32;55.48
38227;BME280;24026;49.446;8.576;2023-05-23T00:10:13;100353.25;;;22.34;55.54
38227;BME280;24026;49.446;8.576;2023-05-23T00:12:33;100357.38;;;22.31;56.02
38227;BME280;24026;49.446;8.576;2023-05-23T00:14:54;100354.19;;;22.29;55.69
38227;BME280;24026;49.446;8.576;2023-05-23T00:17:14;100359.63;;;22.29;56.11
38227;BME280;24026;49.446;8.576;2023-05-23T00:19:36;100359.13;;;22.27;55.98
38227;BME280;24026;49.446;8.576;2023-05-23T00:21:57;100361.53;;;22.29;55.96
38227;BME280;24026;49.446;8.576;2023-05-23T00:24:17;100357.19;;;22.28;56.19
38227;BME280;24026;49.446;8.576;2023-05-23T00:26:39;100357.38;;;22.23;56.12
38227;BME280;24026;49.446;8.576;2023-05-23T00:29:00;100361.16;;;22.21;56.16
38227;BME280;24026;49.446;8.576;2023-05-23T00:31:21;100356.56;;;22.22;56.03
38227;BME280;24026;49.446;8.576;2023-05-23T00:33:42;100357.84;;;22.25;56.09
38227;BME280;24026;49.446;8.576;2023-05-23T00:36:02;100360.38;;;22.21;56.12
38227;BME280;24026;49.446;8.576;2023-05-23T00:38:22;100358.00;;;22.19;56.35
38227;BME280;24026;49.446;8.576;2023-05-23T00:40:43;100357.22;;;22.19;56.17
38227;BME280;24026;49.446;8.576;2023-05-23T00:43:03;100357.22;;;22.19;56.45
38227;BME280;24026;49.446;8.576;2023-05-23T00:45:24;100357.06;;;22.15;56.54
38227;BME280;24026;49.446;8.576;2023-05-23T00:47:45;100357.53;;;22.17;56.39
38227;BME280;24026;49.446;8.576;2023-05-23T00:50:13;100362.28;;;22.12;56.21
38227;BME280;24026;49.446;8.576;2023-05-23T00:52:34;100354.34;;;22.15;56.55
38227;BME280;24026;49.446;8.576;2023-05-23T00:54:55;100363.09;;;22.12;56.40
38227;BME280;24026;49.446;8.576;2023-05-23T00:57:16;100363.91;;;22.13;56.76
38227;BME280;24026;49.446;8.576;2023-05-23T00:59:37;100366.59;;;22.13;56.47
38227;BME280;24026;49.446;8.576;2023-05-23T01:01:59;100369.00;;;22.14;56.39
38227;BME280;24026;49.446;8.576;2023-05-23T01:04:20;100367.06;;;22.15;56.33
38227;BME280;24026;49.446;8.576;2023-05-23T01:06:41;100367.25;;;22.10;56.67
38227;BME280;24026;49.446;8.576;2023-05-23T01:09:05;100360.06;;;22.05;56.77
38227;BME280;24026;49.446;8.576;2023-05-23T01:12:19;100366.63;;;22.04;56.85
38227;BME280;24026;49.446;8.576;2023-05-23T01:14:19;100366.16;;;22.02;56.83
38227;BME280;24026;49.446;8.576;2023-05-23T01:16:55;100366.47;;;22.00;56.43
38227;BME280;24026;49.446;8.576;2023-05-23T01:21:44;100368.53;;;22.04;56.97
38227;BME280;24026;49.446;8.576;2023-05-23T01:24:31;100367.56;;;21.91;57.01
38227;BME280;24026;49.446;8.576;2023-05-23T01:27:17;100365.97;;;21.90;56.86
38227;BME280;24026;49.446;8.576;2023-05-23T01:29:44;100367.41;;;21.96;56.96
38227;BME280;24026;49.446;8.576;2023-05-23T01:32:09;100373.91;;;21.95;57.10
38227;BME280;24026;49.446;8.576;2023-05-23T01:34:31;100371.22;;;21.95;56.88
38227;BME280;24026;49.446;8.576;2023-05-23T01:36:54;100373.28;;;21.98;57.01
38227;BME280;24026;49.446;8.576;2023-05-23T01:39:15;100378.53;;;21.94;56.84
38227;BME280;24026;49.446;8.576;2023-05-23T01:41:36;100373.78;;;21.91;57.17
38227;BME280;24026;49.446;8.576;2023-05-23T01:43:56;100375.69;;;21.91;57.14
38227;BME280;24026;49.446;8.576;2023-05-23T01:46:17;100383.00;;;21.90;57.14
38227;BME280;24026;49.446;8.576;2023-05-23T01:48:39;100381.88;;;21.91;57.00
38227;BME280;24026;49.446;8.576;2023-05-23T01:51:00;100391.44;;;21.89;57.17
38227;BME280;24026;49.446;8.576;2023-05-23T01:53:22;100389.06;;;21.87;57.43
38227;BME280;24026;49.446;8.576;2023-05-23T01:55:43;100398.28;;;21.86;57.35
38227;BME280;24026;49.446;8.576;2023-05-23T01:58:04;100397.47;;;21.86;57.47
38227;BME280;24026;49.446;8.576;2023-05-23T02:00:25;100398.28;;;21.86;57.23
38227;BME280;24026;49.446;8.576;2023-05-23T02:02:46;100399.72;;;21.83;57.25
38227;BME280;24026;49.446;8.576;2023-05-23T02:05:06;100397.31;;;21.82;57.42
38227;BME280;24026;49.446;8.576;2023-05-23T02:07:28;100403.69;;;21.86;57.29
38227;BME280;24026;49.446;8.576;2023-05-23T02:09:49;100403.38;;;21.79;57.53
38227;BME280;24026;49.446;8.576;2023-05-23T02:12:09;100405.75;;;21.80;57.30
38227;BME280;24026;49.446;8.576;2023-05-23T02:14:30;100411.00;;;21.77;57.61
38227;BME280;24026;49.446;8.576;2023-05-23T02:16:51;100404.47;;;21.78;57.37
38227;BME280;24026;49.446;8.576;2023-05-23T02:19:11;100410.19;;;21.76;57.54
38227;BME280;24026;49.446;8.576;2023-05-23T02:21:32;100410.19;;;21.76;57.81
38227;BME280;24026;49.446;8.576;2023-05-23T02:23:52;100412.91;;;21.76;57.61
38227;BME280;24026;49.446;8.576;2023-05-23T02:26:13;100404.31;;;21.74;57.80
38227;BME280;24026;49.446;8.576;2023-05-23T02:28:33;100409.25;;;21.72;57.83
38227;BME280;24026;49.446;8.576;2023-05-23T02:30:53;100406.84;;;21.71;57.95
38227;BME280;24026;49.446;8.576;2023-05-23T02:33:14;100412.25;;;21.71;57.72
38227;BME280;24026;49.446;8.576;2023-05-23T02:35:35;100407.94;;;21.70;57.61
38227;BME280;24026;49.446;8.576;2023-05-23T02:37:56;100407.16;;;21.69;58.30
38227;BME280;24026;49.446;8.576;2023-05-23T02:40:16;100417.50;;;21.67;57.72
38227;BME280;24026;49.446;8.576;2023-05-23T02:42:36;100422.09;;;21.67;57.98
38227;BME280;24026;49.446;8.576;2023-05-23T02:44:57;100414.94;;;21.62;58.01
38227;BME280;24026;49.446;8.576;2023-05-23T02:47:17;100421.00;;;21.68;57.78
38227;BME280;24026;49.446;8.576;2023-05-23T02:49:40;100427.03;;;21.64;57.93
38227;BME280;24026;49.446;8.576;2023-05-23T02:52:01;100422.56;;;21.60;58.18
38227;BME280;24026;49.446;8.576;2023-05-23T02:54:21;100421.78;;;21.59;58.23
38227;BME280;24026;49.446;8.576;2023-05-23T02:56:43;100424.47;;;21.59;58.01
38227;BME280;24026;49.446;8.576;2023-05-23T02:59:03;100427.81;;;21.56;58.02
38227;BME280;24026;49.446;8.576;2023-05-23T03:01:23;100424.31;;;21.56;58.36
38227;BME280;24026;49.446;8.576;2023-05-23T03:03:44;100418.44;;;21.54;58.30
38227;BME280;24026;49.446;8.576;2023-05-23T03:06:04;100421.44;;;21.52;58.17
38227;BME280;24026;49.446;8.576;2023-05-23T03:08:25;100426.53;;;21.54;58.01
38227;BME280;24026;49.446;8.576;2023-05-23T03:10:45;100426.09;;;21.60;57.85
38227;BME280;24026;49.446;8.576;2023-05-23T03:13:06;100430.03;;;21.54;58.30
38227;BME280;24026;49.446;8.576;2023-05-23T03:15:26;100431.78;;;21.50;58.24
38227;BME280;24026;49.446;8.576;2023-05-23T03:17:46;100429.09;;;21.50;58.21
38227;BME280;24026;49.446;8.576;2023-05-23T03:20:07;100431.13;;;21.53;58.36
38227;BME280;24026;49.446;8.576;2023-05-23T03:22:29;100433.97;;;21.48;58.36
38227;BME280;24026;49.446;8.576;2023-05-23T03:24:49;100429.41;;;21.49;58.17
38227;BME280;24026;49.446;8.576;2023-05-23T03:27:09;100422.38;;;21.48;58.20
38227;BME280;24026;49.446;8.576;2023-05-23T03:29:30;100426.69;;;21.49;58.14
38227;BME280;24026;49.446;8.576;2023-05-23T03:31:51;100428.56;;;21.48;58.55
38227;BME280;24026;49.446;8.576;2023-05-23T03:34:12;100430.50;;;21.48;58.42
38227;BME280;24026;49.446;8.576;2023-05-23T03:36:32;100430.28;;;21.44;58.22
38227;BME280;24026;49.446;8.576;2023-05-23T03:38:53;100434.25;;;21.46;58.50
38227;BME280;24026;49.446;8.576;2023-05-23T03:41:13;100445.38;;;21.45;58.38
38227;BME280;24026;49.446;8.576;2023-05-23T03:43:34;100438.28;;;21.49;58.22
38227;BME280;24026;49.446;8.576;2023-05-23T03:45:54;100436.19;;;21.46;58.47
38227;BME280;24026;49.446;8.576;2023-05-23T03:48:14;100442.69;;;21.45;58.31
38227;BME280;24026;49.446;8.576;2023-05-23T03:50:35;100448.31;;;21.49;58.10
38227;BME280;24026;49.446;8.576;2023-05-23T03:52:55;100447.50;;;21.48;58.26
38227;BME280;24026;49.446;8.576;2023-05-23T03:55:16;100445.06;;;21.46;58.29
38227;BME280;24026;49.446;8.576;2023-05-23T03:57:36;100450.31;;;21.43;58.33
38227;BME280;24026;49.446;8.576;2023-05-23T03:59:56;100451.75;;;21.40;58.20
38227;BME280;24026;49.446;8.576;2023-05-23T04:02:17;100453.34;;;21.41;58.54
38227;BME280;24026;49.446;8.576;2023-05-23T04:04:37;100456.84;;;21.42;58.39
38227;BME280;24026;49.446;8.576;2023-05-23T04:06:58;100464.16;;;21.41;58.24
38227;BME280;24026;49.446;8.576;2023-05-23T04:09:19;100457.94;;;21.41;58.33
38227;BME280;24026;49.446;8.576;2023-05-23T04:11:39;100456.03;;;21.41;58.38
38227;BME280;24026;49.446;8.576;2023-05-23T04:14:00;100461.59;;;21.36;58.43
38227;BME280;24026;49.446;8.576;2023-05-23T04:16:21;100461.28;;;21.38;58.44
38227;BME280;24026;49.446;8.576;2023-05-23T04:18:41;100458.09;;;21.36;58.44
38227;BME280;24026;49.446;8.576;2023-05-23T04:21:02;100465.41;;;21.35;58.37
38227;BME280;24026;49.446;8.576;2023-05-23T04:23:22;100464.13;;;21.33;58.46
38227;BME280;24026;49.446;8.576;2023-05-23T04:25:43;100463.03;;;21.34;58.55
38227;BME280;24026;49.446;8.576;2023-05-23T04:28:04;100479.53;;;21.32;58.27
38227;BME280;24026;49.446;8.576;2023-05-23T04:30:25;100477.63;;;21.33;58.48
38227;BME280;24026;49.446;8.576;2023-05-23T04:32:46;100471.44;;;21.32;58.39
38227;BME280;24026;49.446;8.576;2023-05-23T04:35:07;100477.94;;;21.31;58.59
38227;BME280;24026;49.446;8.576;2023-05-23T04:37:28;100476.84;;;21.32;58.48
38227;BME280;24026;49.446;8.576;2023-05-23T04:39:48;100481.13;;;21.33;58.03
38227;BME280;24026;49.446;8.576;2023-05-23T04:42:08;100487.34;;;21.34;58.56
38227;BME280;24026;49.446;8.576;2023-05-23T04:44:29;100485.75;;;21.33;58.36
38227;BME280;24026;49.446;8.576;2023-05-23T04:46:49;100492.25;;;21.32;58.25
38227;BME280;24026;49.446;8.576;2023-05-23T04:49:10;100491.75;;;21.29;58.08
38227;BME280;24026;49.446;8.576;2023-05-23T04:51:30;100494.47;;;21.29;58.25
38227;BME280;24026;49.446;8.576;2023-05-23T04:53:51;100502.28;;;21.31;58.56
38227;BME280;24026;49.446;8.576;2023-05-23T04:56:12;100506.56;;;21.32;57.96
38227;BME280;24026;49.446;8.576;2023-05-23T04:58:33;100506.44;;;21.37;58.07
38227;BME280;24026;49.446;8.576;2023-05-23T05:00:55;100506.91;;;21.39;57.14
38227;BME280;24026;49.446;8.576;2023-05-23T05:03:15;100510.28;;;21.45;57.45
38227;BME280;24026;49.446;8.576;2023-05-23T05:05:37;100508.53;;;21.40;57.36
38227;BME280;24026;49.446;8.576;2023-05-23T05:07:59;100515.38;;;21.46;56.57
38227;BME280;24026;49.446;8.576;2023-05-23T05:10:19;100515.69;;;21.45;56.28
38227;BME280;24026;49.446;8.576;2023-05-23T05:12:40;100522.03;;;21.40;56.24
38227;BME280;24026;49.446;8.576;2023-05-23T05:15:02;100521.97;;;21.32;56.09
38227;BME280;24026;49.446;8.576;2023-05-23T05:17:23;100519.41;;;21.26;56.65
38227;BME280;24026;49.446;8.576;2023-05-23T05:19:46;100521.00;;;21.27;56.83
38227;BME280;24026;49.446;8.576;2023-05-23T05:22:07;100527.72;;;21.30;56.65
38227;BME280;24026;49.446;8.576;2023-05-23T05:24:27;100525.97;;;21.34;56.27
38227;BME280;24026;49.446;8.576;2023-05-23T05:26:48;100531.25;;;21.39;55.35
38227;BME280;24026;49.446;8.576;2023-05-23T05:29:10;100543.13;;;21.29;55.69
38227;BME280;24026;49.446;8.576;2023-05-23T05:31:32;100535.63;;;21.26;55.88
38227;BME280;24026;49.446;8.576;2023-05-23T05:33:53;100540.25;;;21.26;55.72
38227;BME280;24026;49.446;8.576;2023-05-23T05:36:14;100542.16;;;21.25;55.91
38227;BME280;24026;49.446;8.576;2023-05-23T05:38:34;100550.63;;;21.33;54.98
38227;BME280;24026;49.446;8.576;2023-05-23T05:40:55;100550.44;;;21.29;54.72
38227;BME280;24026;49.446;8.576;2023-05-23T05:43:16;100556.94;;;21.28;55.20
38227;BME280;24026;49.446;8.576;2023-05-23T05:45:36;100557.75;;;21.28;54.92
38227;BME280;24026;49.446;8.576;2023-05-23T05:47:57;100561.69;;;21.22;55.32
38227;BME280;24026;49.446;8.576;2023-05-23T05:50:17;100549.78;;;21.23;55.40
38227;BME280;24026;49.446;8.576;2023-05-23T05:52:40;100560.75;;;21.27;54.92
38227;BME280;24026;49.446;8.576;2023-05-23T05:55:01;100567.56;;;21.24;55.06
38227;BME280;24026;49.446;8.576;2023-05-23T05:57:21;100564.44;;;21.31;55.03
38227;BME280;24026;49.446;8.576;2023-05-23T05:59:42;100564.91;;;21.33;54.92
38227;BME280;24026;49.446;8.576;2023-05-23T06:02:02;100572.41;;;21.36;54.61
38227;BME280;24026;49.446;8.576;2023-05-23T06:04:23;100570.31;;;21.33;54.79
38227;BME280;24026;49.446;8.576;2023-05-23T06:06:43;100572.09;;;21.38;54.64
38227;BME280;24026;49.446;8.576;2023-05-23T06:09:04;100578.69;;;21.45;54.50
38227;BME280;24026;49.446;8.576;2023-05-23T06:11:24;100577.13;;;21.53;54.35
38227;BME280;24026;49.446;8.576;2023-05-23T06:13:45;100586.25;;;21.57;53.97
38227;BME280;24026;49.446;8.576;2023-05-23T06:16:06;100590.97;;;21.52;53.95
38227;BME280;24026;49.446;8.576;2023-05-23T06:18:26;100592.19;;;21.45;54.32
38227;BME280;24026;49.446;8.576;2023-05-23T06:20:47;100590.16;;;21.51;53.49
38227;BME280;24026;49.446;8.576;2023-05-23T06:23:07;100596.56;;;21.55;53.61
38227;BME280;24026;49.446;8.576;2023-05-23T06:25:29;100584.47;;;21.53;53.55
38227;BME280;24026;49.446;8.576;2023-05-23T06:27:50;100597.53;;;21.59;53.87
38227;BME280;24026;49.446;8.576;2023-05-23T06:30:11;100596.91;;;21.62;53.33
38227;BME280;24026;49.446;8.576;2023-05-23T06:32:32;100593.78;;;21.69;53.54
38227;BME280;24026;49.446;8.576;2023-05-23T06:34:52;100602.50;;;21.66;53.30
38227;BME280;24026;49.446;8.576;2023-05-23T06:37:13;100602.97;;;21.68;53.03
38227;BME280;24026;49.446;8.576;2023-05-23T06:39:35;100605.38;;;21.70;53.33
38227;BME280;24026;49.446;8.576;2023-05-23T06:41:55;100609.00;;;21.65;53.42
38227;BME280;24026;49.446;8.576;2023-05-23T06:44:16;100615.22;;;21.65;53.32
38227;BME280;24026;49.446;8.576;2023-05-23T06:46:36;100614.41;;;21.65;53.40
38227;BME280;24026;49.446;8.576;2023-05-23T06:48:58;100617.81;;;21.71;52.80
38227;BME280;24026;49.446;8.576;2023-05-23T06:51:21;100621.78;;;21.73;52.77
38227;BME280;24026;49.446;8.576;2023-05-23T06:53:42;100623.69;;;21.73;52.25
38227;BME280;24026;49.446;8.576;2023-05-23T06:56:03;100625.44;;;21.69;52.85
38227;BME280;24026;49.446;8.576;2023-05-23T06:58:24;100624.75;;;21.63;52.81
38227;BME280;24026;49.446;8.576;2023-05-23T07:00:45;100630.13;;;21.54;53.08
38227;BME280;24026;49.446;8.576;2023-05-23T07:03:06;100629.63;;;21.52;53.35
38227;BME280;24026;49.446;8.576;2023-05-23T07:05:27;100632.66;;;21.51;53.10
38227;BME280;24026;49.446;8.576;2023-05-23T07:07:48;100631.41;;;21.57;52.88
38227;BME280;24026;49.446;8.576;2023-05-23T07:10:09;100648.91;;;21.59;52.94
38227;BME280;24026;49.446;8.576;2023-05-23T07:12:32;100640.19;;;21.62;52.64
38227;BME280;24026;49.446;8.576;2023-05-23T07:14:54;100647.19;;;21.63;52.72
38227;BME280;24026;49.446;8.576;2023-05-23T07:17:15;100642.75;;;21.68;52.72
38227;BME280;24026;49.446;8.576;2023-05-23T07:19:36;100642.28;;;21.65;52.30
38227;BME280;24026;49.446;8.576;2023-05-23T07:21:57;100648.66;;;21.70;52.37
38227;BME280;24026;49.446;8.576;2023-05-23T07:24:17;100647.06;;;21.69;52.20
38227;BME280;24026;49.446;8.576;2023-05-23T07:26:39;100656.28;;;21.68;52.11
38227;BME280;24026;49.446;8.576;2023-05-23T07:29:01;100649.94;;;21.72;52.15
38227;BME280;24026;49.446;8.576;2023-05-23T07:31:23;100646.94;;;21.74;51.91
38227;BME280;24026;49.446;8.576;2023-05-23T07:33:45;100654.22;;;21.73;51.75
38227;BME280;24026;49.446;8.576;2023-05-23T07:36:05;100643.41;;;21.73;51.97
38227;BME280;24026;49.446;8.576;2023-05-23T07:38:26;100654.44;;;21.77;51.46
38227;BME280;24026;49.446;8.576;2023-05-23T07:40:46;100655.03;;;21.74;51.36
38227;BME280;24026;49.446;8.576;2023-05-23T07:43:06;100649.13;;;21.72;51.38
38227;BME280;24026;49.446;8.576;2023-05-23T07:45:27;100654.75;;;21.75;51.36
38227;BME280;24026;49.446;8.576;2023-05-23T07:47:48;100646.63;;;21.75;50.90
38227;BME280;24026;49.446;8.576;2023-05-23T07:50:09;100641.84;;;21.72;50.68
38227;BME280;24026;49.446;8.576;2023-05-23T07:52:29;100646.94;;;21.74;50.94
38227;BME280;24026;49.446;8.576;2023-05-23T07:54:51;100639.56;;;21.65;50.28
38227;BME280;24026;49.446;8.576;2023-05-23T07:57:11;100648.00;;;21.64;50.06
38227;BME280;24026;49.446;8.576;2023-05-23T07:59:45;100657.63;;;21.56;49.90
38227;BME280;24026;49.446;8.576;2023-05-23T08:02:05;100665.31;;;21.63;49.67
38227;BME280;24026;49.446;8.576;2023-05-23T08:04:27;100658.47;;;21.57;49.34
38227;BME280;24026;49.446;8.576;2023-05-23T08:06:47;100663.03;;;21.56;49.55
38227;BME280;24026;49.446;8.576;2023-05-23T08:09:08;100663.34;;;21.55;49.07
38227;BME280;24026;49.446;8.576;2023-05-23T08:11:29;100671.59;;;21.50;49.28
38227;BME280;24026;49.446;8.576;2023-05-23T08:13:50;100674.28;;;21.50;49.48
38227;BME280;24026;49.446;8.576;2023-05-23T08:16:11;100660.28;;;21.48;50.22
38227;BME280;24026;49.446;8.576;2023-05-23T08:18:32;100661.59;;;21.50;49.23
38227;BME280;24026;49.446;8.576;2023-05-23T08:20:56;100664.59;;;21.49;50.05
38227;BME280;24026;49.446;8.576;2023-05-23T08:23:18;100664.59;;;21.49;50.77
38227;BME280;24026;49.446;8.576;2023-05-23T08:25:40;100661.09;;;21.48;51.04
38227;BME280;24026;49.446;8.576;2023-05-23T08:28:00;100658.97;;;21.45;50.88
38227;BME280;24026;49.446;8.576;2023-05-23T08:30:21;100663.47;;;21.50;50.74
38227;BME280;24026;49.446;8.576;2023-05-23T08:32:45;100660.34;;;21.56;50.54
38227;BME280;24026;49.446;8.576;2023-05-23T08:35:08;100658.63;;;21.60;50.03
38227;BME280;24026;49.446;8.576;2023-05-23T08:37:29;100662.78;;;21.67;49.45
38227;BME280;24026;49.446;8.576;2023-05-23T08:39:51;100669.66;;;21.73;49.22
38227;BME280;24026;49.446;8.576;2023-05-23T08:42:13;100673.38;;;21.77;49.21
38227;BME280;24026;49.446;8.576;2023-05-23T08:44:34;100666.84;;;21.78;48.94
38227;BME280;24026;49.446;8.576;2023-05-23T08:46:55;100671.63;;;21.81;48.86
38227;BME280;24026;49.446;8.576;2023-05-23T08:49:17;100680.22;;;21.83;48.50
38227;BME280;24026;49.446;8.576;2023-05-23T08:51:41;100673.72;;;21.84;48.26
38227;BME280;24026;49.446;8.576;2023-05-23T08:54:02;100665.59;;;21.84;48.12
38227;BME280;24026;49.446;8.576;2023-05-23T08:56:25;100669.56;;;21.87;48.31
38227;BME280;24026;49.446;8.576;2023-05-23T08:58:47;100666.72;;;21.92;47.96
38227;BME280;24026;49.446;8.576;2023-05-23T09:01:08;100669.94;;;21.94;48.27
38227;BME280;24026;49.446;8.576;2023-05-23T09:03:30;100672.50;;;21.99;47.86
38227;BME280;24026;49.446;8.576;2023-05-23T09:05:57;100677.31;;;22.02;47.66
38227;BME280;24026;49.446;8.576;2023-05-23T09:08:18;100672.69;;;22.02;47.86
38227;BME280;24026;49.446;8.576;2023-05-23T09:10:38;100677.16;;;22.07;47.51
38227;BME280;24026;49.446;8.576;2023-05-23T09:13:00;100668.44;;;22.10;47.74
38227;BME280;24026;49.446;8.576;2023-05-23T09:15:20;100668.91;;;22.12;47.54
38227;BME280;24026;49.446;8.576;2023-05-23T09:17:45;100678.81;;;22.17;47.60
38227;BME280;24026;49.446;8.576;2023-05-23T09:20:13;100672.88;;;22.15;47.51
38227;BME280;24026;49.446;8.576;2023-05-23T09:22:35;100670.84;;;22.20;47.15
38227;BME280;24026;49.446;8.576;2023-05-23T09:25:04;100667.84;;;22.22;47.60
38227;BME280;24026;49.446;8.576;2023-05-23T09:27:24;100670.72;;;22.26;47.44
38227;BME280;24026;49.446;8.576;2023-05-23T09:29:45;100666.41;;;22.25;47.55
38227;BME280;24026;49.446;8.576;2023-05-23T09:32:13;100674.03;;;22.23;46.97
38227;BME280;24026;49.446;8.576;2023-05-23T09:34:34;100674.03;;;22.23;47.24
38227;BME280;24026;49.446;8.576;2023-05-23T09:36:56;100681.84;;;22.24;46.77
38227;BME280;24026;49.446;8.576;2023-05-23T09:39:17;100678.97;;;22.20;47.01
38227;BME280;24026;49.446;8.576;2023-05-23T09:41:39;100677.84;;;22.21;46.87
38227;BME280;24026;49.446;8.576;2023-05-23T09:44:07;100675.75;;;22.18;46.76
38227;BME280;24026;49.446;8.576;2023-05-23T09:46:28;100678.97;;;22.20;46.94
38227;BME280;24026;49.446;8.576;2023-05-23T09:48:51;100671.16;;;22.19;47.08
38227;BME280;24026;49.446;8.576;2023-05-23T09:51:13;100675.31;;;22.25;46.53
38227;BME280;24026;49.446;8.576;2023-05-23T09:53:34;100674.03;;;22.23;46.58
38227;BME280;24026;49.446;8.576;2023-05-23T09:55:57;100674.22;;;22.26;46.45
38227;BME280;24026;49.446;8.576;2023-05-23T09:58:19;100674.22;;;22.26;46.36
38227;BME280;24026;49.446;8.576;2023-05-23T10:00:45;100678.72;;;22.31;46.31
38227;BME280;24026;49.446;8.576;2023-05-23T10:03:10;100673.72;;;22.24;46.46
38227;BME280;24026;49.446;8.576;2023-05-23T10:05:39;100676.44;;;22.24;46.41
38227;BME280;24026;49.446;8.576;2023-05-23T10:08:07;100680.88;;;22.20;46.66
38227;BME280;24026;49.446;8.576;2023-05-23T10:10:31;100682.31;;;22.26;46.40
38227;BME280;24026;49.446;8.576;2023-05-23T10:12:55;100685.66;;;22.23;46.41
38227;BME280;24026;49.446;8.576;2023-05-23T10:15:17;100680.41;;;22.27;46.66
38227;BME280;24026;49.446;8.576;2023-05-23T10:18:01;100684.53;;;22.15;46.18
38227;BME280;24026;49.446;8.576;2023-05-23T10:20:24;100686.78;;;22.22;46.38
38227;BME280;24026;49.446;8.576;2023-05-23T10:22:45;100688.34;;;22.23;46.28
38227;BME280;24026;49.446;8.576;2023-05-23T10:25:07;100697.66;;;22.31;46.46
38227;BME280;24026;49.446;8.576;2023-05-23T10:27:30;100694.59;;;22.24;46.57
38227;BME280;24026;49.446;8.576;2023-05-23T10:29:50;100696.38;;;22.28;46.30
38227;BME280;24026;49.446;8.576;2023-05-23T10:32:11;100695.69;;;22.23;46.66
38227;BME280;24026;49.446;8.576;2023-05-23T10:34:51;100688.97;;;22.20;46.56
38227;BME280;24026;49.446;8.576;2023-05-23T10:37:23;100694.84;;;22.13;46.90
38227;BME280;24026;49.446;8.576;2023-05-23T10:40:12;100696.91;;;22.08;46.64
38227;BME280;24026;49.446;8.576;2023-05-23T10:43:01;100698.00;;;22.07;47.05
38227;BME280;24026;49.446;8.576;2023-05-23T10:45:24;100698.38;;;22.14;46.77
38227;BME280;24026;49.446;8.576;2023-05-23T10:47:52;100698.06;;;22.15;46.60
38227;BME280;24026;49.446;8.576;2023-05-23T10:50:13;100699.94;;;22.15;46.69
38227;BME280;24026;49.446;8.576;2023-05-23T10:52:43;100705.50;;;22.10;47.10
38227;BME280;24026;49.446;8.576;2023-05-23T10:55:15;100704.22;;;22.07;47.05
38227;BME280;24026;49.446;8.576;2023-05-23T10:57:39;100704.09;;;22.12;47.03
38227;BME280;24026;49.446;8.576;2023-05-23T11:00:03;100696.16;;;22.16;47.30
38227;BME280;24026;49.446;8.576;2023-05-23T11:02:27;100701.06;;;22.14;47.13
38227;BME280;24026;49.446;8.576;2023-05-23T11:05:22;100701.34;;;22.04;47.49
38227;BME280;24026;49.446;8.576;2023-05-23T11:07:44;100693.09;;;22.09;47.40
38227;BME280;24026;49.446;8.576;2023-05-23T11:10:12;100699.91;;;22.06;47.45
38227;BME280;24026;49.446;8.576;2023-05-23T11:12:43;100697.88;;;22.12;47.36
38227;BME280;24026;49.446;8.576;2023-05-23T11:17:36;100703.91;;;22.09;47.45
38227;BME280;24026;49.446;8.576;2023-05-23T11:20:08;100709.78;;;22.02;47.67
38227;BME280;24026;49.446;8.576;2023-05-23T11:22:28;100705.03;;;22.08;47.49
38227;BME280;24026;49.446;8.576;2023-05-23T11:24:51;100708.06;;;22.15;47.44
38227;BME280;24026;49.446;8.576;2023-05-23T11:27:12;100710.47;;;22.16;47.44
38227;BME280;24026;49.446;8.576;2023-05-23T11:29:32;100706.19;;;22.15;47.16
38227;BME280;24026;49.446;8.576;2023-05-23T11:31:53;100715.56;;;22.18;47.24
38227;BME280;24026;49.446;8.576;2023-05-23T11:34:13;100714.00;;;22.17;47.11
38227;BME280;24026;49.446;8.576;2023-05-23T11:36:34;100708.25;;;22.18;47.21
38227;BME280;24026;49.446;8.576;2023-05-23T11:38:55;100709.22;;;22.23;47.23
38227;BME280;24026;49.446;8.576;2023-05-23T11:41:15;100713.19;;;22.25;47.06
38227;BME280;24026;49.446;8.576;2023-05-23T11:43:36;100713.72;;;22.27;46.91
38227;BME280;24026;49.446;8.576;2023-05-23T11:45:56;100717.41;;;22.31;46.88
38227;BME280;24026;49.446;8.576;2023-05-23T11:48:17;100714.06;;;22.34;47.02
38227;BME280;24026;49.446;8.576;2023-05-23T11:50:51;100705.97;;;22.34;46.79
38227;BME280;24026;49.446;8.576;2023-05-23T11:53:13;100708.03;;;22.37;46.98
38227;BME280;24026;49.446;8.576;2023-05-23T11:55:39;100696.09;;;22.38;46.58
38227;BME280;24026;49.446;8.576;2023-05-23T11:57:59;100699.13;;;22.37;46.30
38227;BME280;24026;49.446;8.576;2023-05-23T12:00:20;100691.50;;;22.39;46.29
38227;BME280;24026;49.446;8.576;2023-05-23T12:02:42;100697.84;;;22.43;46.23
38227;BME280;24026;49.446;8.576;2023-05-23T12:05:09;100693.75;;;22.46;46.04
38227;BME280;24026;49.446;8.576;2023-05-23T12:07:32;100692.59;;;22.47;46.30
38227;BME280;24026;49.446;8.576;2023-05-23T12:09:54;100703.94;;;22.49;46.16
38227;BME280;24026;49.446;8.576;2023-05-23T12:12:16;100702.34;;;22.48;46.17
38227;BME280;24026;49.446;8.576;2023-05-23T12:14:40;100696.31;;;22.51;46.30
38227;BME280;24026;49.446;8.576;2023-05-23T12:17:03;100687.38;;;22.50;46.29
38227;BME280;24026;49.446;8.576;2023-05-23T12:19:25;100694.38;;;22.51;46.39
38227;BME280;24026;49.446;8.576;2023-05-23T12:21:47;100692.47;;;22.52;45.93
38227;BME280;24026;49.446;8.576;2023-05-23T12:24:16;100697.41;;;22.50;46.05
38227;BME280;24026;49.446;8.576;2023-05-23T12:26:54;100700.59;;;22.52;46.24
38227;BME280;24026;49.446;8.576;2023-05-23T12:29:34;100696.59;;;22.49;46.28